sensor_id;sensor_type;location;lat;lon;timestamp;P1;durP1;ratioP1;P2;durP2;ratioP2
76714;SDS011;65644;44.990;20.288;2024-02-04T00:01:50;36.78;;;27.23;;
76714;SDS011;65644;44.990;20.288;2024-02-04T00:04:16;40.03;;;27.48;;
76714;SDS011;65644;44.990;20.288;2024-02-04T00:06:42;39.05;;;27.83;;
76714;SDS011;65644;44.990;20.288;2024-02-04T00:09:08;37.38;;;28.38;;
76714;SDS011;65644;44.990;20.288;2024-02-04T00:11:34;39.25;;;28.73;;
76714;SDS011;65644;44.990;20.288;2024-02-04T00:14:00;38.50;;;28.48;;
76714;SDS011;65644;44.990;20.288;2024-02-04T00:16:28;40.00;;;28.55;;
76714;SDS011;65644;44.990;20.288;2024-02-04T00:18:54;40.55;;;29.88;;
76714;SDS011;65644;44.990;20.288;2024-02-04T00:21:20;41.90;;;30.35;;
76714;SDS011;65644;44.990;20.288;2024-02-04T00:23:46;44.92;;;31.85;;
76714;SDS011;65644;44.990;20.288;2024-02-04T00:26:12;43.20;;;32.55;;
76714;SDS011;65644;44.990;20.288;2024-02-04T00:28:38;47.05;;;34.15;;
76714;SDS011;65644;44.990;20.288;2024-02-04T00:31:07;44.45;;;32.58;;
76714;SDS011;65644;44.990;20.288;2024-02-04T00:33:34;42.60;;;31.92;;
76714;SDS011;65644;44.990;20.288;2024-02-04T00:36:00;47.80;;;32.53;;
76714;SDS011;65644;44.990;20.288;2024-02-04T00:38:26;45.45;;;33.25;;
76714;SDS011;65644;44.990;20.288;2024-02-04T00:40:52;44.70;;;32.33;;
76714;SDS011;65644;44.990;20.288;2024-02-04T00:43:19;44.50;;;32.30;;
76714;SDS011;65644;44.990;20.288;2024-02-04T00:45:45;47.90;;;33.10;;
76714;SDS011;65644;44.990;20.288;2024-02-04T00:48:11;46.95;;;34.03;;
76714;SDS011;65644;44.990;20.288;2024-02-04T00:50:37;47.15;;;32.63;;
76714;SDS011;65644;44.990;20.288;2024-02-04T00:53:03;51.15;;;34.40;;
76714;SDS011;65644;44.990;20.288;2024-02-04T00:55:31;54.92;;;36.15;;
76714;SDS011;65644;44.990;20.288;2024-02-04T00:57:58;49.72;;;33.85;;
76714;SDS011;65644;44.990;20.288;2024-02-04T01:00:26;47.20;;;34.03;;
76714;SDS011;65644;44.990;20.288;2024-02-04T01:02:52;44.60;;;32.58;;
76714;SDS011;65644;44.990;20.288;2024-02-04T01:05:18;46.72;;;32.88;;
76714;SDS011;65644;44.990;20.288;2024-02-04T01:07:44;43.25;;;33.50;;
76714;SDS011;65644;44.990;20.288;2024-02-04T01:10:10;48.63;;;33.47;;
76714;SDS011;65644;44.990;20.288;2024-02-04T01:12:36;45.50;;;33.75;;
76714;SDS011;65644;44.990;20.288;2024-02-04T01:15:03;43.58;;;32.08;;
76714;SDS011;65644;44.990;20.288;2024-02-04T01:17:30;46.08;;;33.10;;
76714;SDS011;65644;44.990;20.288;2024-02-04T01:19:57;46.40;;;31.88;;
76714;SDS011;65644;44.990;20.288;2024-02-04T01:22:23;41.60;;;29.90;;
76714;SDS011;65644;44.990;20.288;2024-02-04T01:24:52;39.92;;;30.45;;
76714;SDS011;65644;44.990;20.288;2024-02-04T01:27:18;40.15;;;29.20;;
76714;SDS011;65644;44.990;20.288;2024-02-04T01:29:44;42.13;;;30.20;;
76714;SDS011;65644;44.990;20.288;2024-02-04T01:32:10;40.75;;;29.90;;
76714;SDS011;65644;44.990;20.288;2024-02-04T01:34:36;43.63;;;30.02;;
76714;SDS011;65644;44.990;20.288;2024-02-04T01:37:02;40.08;;;29.35;;
76714;SDS011;65644;44.990;20.288;2024-02-04T01:39:28;40.67;;;29.75;;
76714;SDS011;65644;44.990;20.288;2024-02-04T01:41:54;40.10;;;29.13;;
76714;SDS011;65644;44.990;20.288;2024-02-04T01:44:20;39.78;;;28.20;;
76714;SDS011;65644;44.990;20.288;2024-02-04T01:46:47;40.17;;;29.00;;
76714;SDS011;65644;44.990;20.288;2024-02-04T01:49:17;37.65;;;28.40;;
76714;SDS011;65644;44.990;20.288;2024-02-04T01:51:43;38.20;;;27.67;;
76714;SDS011;65644;44.990;20.288;2024-02-04T01:54:09;39.50;;;26.90;;
76714;SDS011;65644;44.990;20.288;2024-02-04T01:56:35;38.97;;;27.33;;
76714;SDS011;65644;44.990;20.288;2024-02-04T01:59:02;36.70;;;25.77;;
76714;SDS011;65644;44.990;20.288;2024-02-04T02:01:28;34.75;;;27.35;;
76714;SDS011;65644;44.990;20.288;2024-02-04T02:03:54;38.40;;;27.77;;
76714;SDS011;65644;44.990;20.288;2024-02-04T02:06:20;35.47;;;25.70;;
76714;SDS011;65644;44.990;20.288;2024-02-04T02:08:47;33.22;;;25.13;;
76714;SDS011;65644;44.990;20.288;2024-02-04T02:11:18;35.22;;;24.33;;
76714;SDS011;65644;44.990;20.288;2024-02-04T02:13:46;34.75;;;25.77;;
76714;SDS011;65644;44.990;20.288;2024-02-04T02:16:15;34.65;;;26.08;;
76714;SDS011;65644;44.990;20.288;2024-02-04T02:18:45;35.30;;;26.30;;
76714;SDS011;65644;44.990;20.288;2024-02-04T02:26:33;36.67;;;25.05;;
76714;SDS011;65644;44.990;20.288;2024-02-04T02:29:03;34.28;;;25.83;;
76714;SDS011;65644;44.990;20.288;2024-02-04T02:31:30;34.70;;;25.30;;
76714;SDS011;65644;44.990;20.288;2024-02-04T02:33:56;35.40;;;24.85;;
76714;SDS011;65644;44.990;20.288;2024-02-04T02:36:22;29.95;;;23.98;;
76714;SDS011;65644;44.990;20.288;2024-02-04T02:41:27;34.78;;;25.58;;
76714;SDS011;65644;44.990;20.288;2024-02-04T02:43:56;35.08;;;26.35;;
76714;SDS011;65644;44.990;20.288;2024-02-04T02:46:22;34.83;;;24.67;;
76714;SDS011;65644;44.990;20.288;2024-02-04T02:48:49;36.55;;;26.33;;
76714;SDS011;65644;44.990;20.288;2024-02-04T02:51:16;34.83;;;25.85;;
76714;SDS011;65644;44.990;20.288;2024-02-04T02:53:42;35.88;;;26.52;;
76714;SDS011;65644;44.990;20.288;2024-02-04T02:56:08;33.95;;;25.27;;
76714;SDS011;65644;44.990;20.288;2024-02-04T02:58:34;34.08;;;25.67;;
76714;SDS011;65644;44.990;20.288;2024-02-04T03:01:00;32.25;;;25.20;;
76714;SDS011;65644;44.990;20.288;2024-02-04T03:03:26;33.65;;;24.60;;
76714;SDS011;65644;44.990;20.288;2024-02-04T03:05:52;34.75;;;24.75;;
76714;SDS011;65644;44.990;20.288;2024-02-04T03:08:18;35.95;;;25.30;;
76714;SDS011;65644;44.990;20.288;2024-02-04T03:10:44;33.83;;;24.60;;
76714;SDS011;65644;44.990;20.288;2024-02-04T03:13:10;35.30;;;25.20;;
76714;SDS011;65644;44.990;20.288;2024-02-04T03:15:36;31.52;;;25.40;;
76714;SDS011;65644;44.990;20.288;2024-02-04T03:18:02;34.22;;;24.95;;
76714;SDS011;65644;44.990;20.288;2024-02-04T03:20:28;36.78;;;25.98;;
76714;SDS011;65644;44.990;20.288;2024-02-04T03:22:55;36.88;;;26.85;;
76714;SDS011;65644;44.990;20.288;2024-02-04T03:25:21;34.95;;;25.30;;
76714;SDS011;65644;44.990;20.288;2024-02-04T03:27:51;37.55;;;27.27;;
76714;SDS011;65644;44.990;20.288;2024-02-04T03:30:18;38.78;;;27.67;;
76714;SDS011;65644;44.990;20.288;2024-02-04T03:32:44;34.53;;;25.95;;
76714;SDS011;65644;44.990;20.288;2024-02-04T03:35:10;35.95;;;25.63;;
76714;SDS011;65644;44.990;20.288;2024-02-04T03:37:36;37.35;;;26.08;;
76714;SDS011;65644;44.990;20.288;2024-02-04T03:40:02;35.80;;;26.35;;
76714;SDS011;65644;44.990;20.288;2024-02-04T03:42:28;33.28;;;26.25;;
76714;SDS011;65644;44.990;20.288;2024-02-04T03:44:55;36.35;;;26.60;;
76714;SDS011;65644;44.990;20.288;2024-02-04T03:47:21;37.45;;;25.77;;
76714;SDS011;65644;44.990;20.288;2024-02-04T03:49:47;35.95;;;25.60;;
76714;SDS011;65644;44.990;20.288;2024-02-04T03:52:13;34.42;;;24.90;;
76714;SDS011;65644;44.990;20.288;2024-02-04T03:54:39;37.28;;;25.30;;
76714;SDS011;65644;44.990;20.288;2024-02-04T03:57:05;34.97;;;25.38;;
76714;SDS011;65644;44.990;20.288;2024-02-04T03:59:31;32.85;;;24.30;;
76714;SDS011;65644;44.990;20.288;2024-02-04T04:01:57;31.77;;;24.08;;
76714;SDS011;65644;44.990;20.288;2024-02-04T04:04:23;35.35;;;25.85;;
76714;SDS011;65644;44.990;20.288;2024-02-04T04:06:51;32.00;;;23.83;;
76714;SDS011;65644;44.990;20.288;2024-02-04T04:09:17;33.25;;;24.10;;
76714;SDS011;65644;44.990;20.288;2024-02-04T04:11:43;31.17;;;21.23;;
76714;SDS011;65644;44.990;20.288;2024-02-04T04:14:09;28.77;;;21.52;;
76714;SDS011;65644;44.990;20.288;2024-02-04T04:16:35;29.27;;;21.67;;
76714;SDS011;65644;44.990;20.288;2024-02-04T04:19:01;32.22;;;23.05;;
76714;SDS011;65644;44.990;20.288;2024-02-04T04:21:27;30.02;;;23.80;;
76714;SDS011;65644;44.990;20.288;2024-02-04T04:23:53;40.13;;;28.02;;
76714;SDS011;65644;44.990;20.288;2024-02-04T04:26:19;38.40;;;28.45;;
76714;SDS011;65644;44.990;20.288;2024-02-04T04:28:45;34.83;;;27.08;;
76714;SDS011;65644;44.990;20.288;2024-02-04T04:31:11;38.70;;;28.73;;
76714;SDS011;65644;44.990;20.288;2024-02-04T04:33:37;40.25;;;28.73;;
76714;SDS011;65644;44.990;20.288;2024-02-04T04:36:04;39.03;;;28.60;;
76714;SDS011;65644;44.990;20.288;2024-02-04T04:38:30;38.28;;;29.52;;
76714;SDS011;65644;44.990;20.288;2024-02-04T04:40:56;41.05;;;30.58;;
76714;SDS011;65644;44.990;20.288;2024-02-04T04:43:22;38.83;;;29.23;;
76714;SDS011;65644;44.990;20.288;2024-02-04T04:45:48;39.58;;;28.98;;
76714;SDS011;65644;44.990;20.288;2024-02-04T04:48:14;38.80;;;29.50;;
76714;SDS011;65644;44.990;20.288;2024-02-04T04:50:41;39.35;;;29.58;;
76714;SDS011;65644;44.990;20.288;2024-02-04T04:53:07;40.83;;;30.48;;
76714;SDS011;65644;44.990;20.288;2024-02-04T04:55:33;43.67;;;31.63;;
76714;SDS011;65644;44.990;20.288;2024-02-04T04:57:59;44.58;;;32.65;;
76714;SDS011;65644;44.990;20.288;2024-02-04T05:00:25;45.90;;;32.08;;
76714;SDS011;65644;44.990;20.288;2024-02-04T05:02:51;41.95;;;30.63;;
76714;SDS011;65644;44.990;20.288;2024-02-04T05:05:17;43.55;;;30.15;;
76714;SDS011;65644;44.990;20.288;2024-02-04T05:07:43;41.10;;;29.05;;
76714;SDS011;65644;44.990;20.288;2024-02-04T05:10:11;39.97;;;29.40;;
76714;SDS011;65644;44.990;20.288;2024-02-04T05:12:37;41.40;;;30.50;;
76714;SDS011;65644;44.990;20.288;2024-02-04T05:15:04;38.90;;;28.98;;
76714;SDS011;65644;44.990;20.288;2024-02-04T05:17:30;41.88;;;28.85;;
76714;SDS011;65644;44.990;20.288;2024-02-04T05:19:58;35.30;;;26.33;;
76714;SDS011;65644;44.990;20.288;2024-02-04T05:22:24;38.15;;;27.85;;
76714;SDS011;65644;44.990;20.288;2024-02-04T05:24:50;36.13;;;26.70;;
76714;SDS011;65644;44.990;20.288;2024-02-04T05:27:16;36.22;;;26.73;;
76714;SDS011;65644;44.990;20.288;2024-02-04T05:29:42;35.72;;;25.75;;
76714;SDS011;65644;44.990;20.288;2024-02-04T05:32:09;33.78;;;26.25;;
76714;SDS011;65644;44.990;20.288;2024-02-04T05:34:36;33.63;;;26.00;;
76714;SDS011;65644;44.990;20.288;2024-02-04T05:37:02;35.53;;;27.05;;
76714;SDS011;65644;44.990;20.288;2024-02-04T05:39:28;34.85;;;26.92;;
76714;SDS011;65644;44.990;20.288;2024-02-04T05:41:54;39.00;;;30.33;;
76714;SDS011;65644;44.990;20.288;2024-02-04T05:44:20;41.00;;;30.85;;
76714;SDS011;65644;44.990;20.288;2024-02-04T05:46:46;44.72;;;31.17;;
76714;SDS011;65644;44.990;20.288;2024-02-04T05:49:12;42.03;;;31.25;;
76714;SDS011;65644;44.990;20.288;2024-02-04T05:51:39;43.10;;;30.02;;
76714;SDS011;65644;44.990;20.288;2024-02-04T05:54:08;44.58;;;31.15;;
76714;SDS011;65644;44.990;20.288;2024-02-04T05:56:34;38.17;;;30.30;;
76714;SDS011;65644;44.990;20.288;2024-02-04T05:59:00;41.33;;;29.30;;
76714;SDS011;65644;44.990;20.288;2024-02-04T06:01:26;36.40;;;27.98;;
76714;SDS011;65644;44.990;20.288;2024-02-04T06:03:52;41.33;;;29.00;;
76714;SDS011;65644;44.990;20.288;2024-02-04T06:06:18;36.63;;;27.98;;
76714;SDS011;65644;44.990;20.288;2024-02-04T06:08:48;34.92;;;26.80;;
76714;SDS011;65644;44.990;20.288;2024-02-04T06:11:14;37.80;;;26.63;;
76714;SDS011;65644;44.990;20.288;2024-02-04T06:13:41;37.28;;;26.90;;
76714;SDS011;65644;44.990;20.288;2024-02-04T06:16:07;34.80;;;26.08;;
76714;SDS011;65644;44.990;20.288;2024-02-04T06:18:35;34.45;;;25.45;;
76714;SDS011;65644;44.990;20.288;2024-02-04T06:21:04;34.35;;;25.42;;
76714;SDS011;65644;44.990;20.288;2024-02-04T06:23:31;35.67;;;25.88;;
76714;SDS011;65644;44.990;20.288;2024-02-04T06:25:57;35.22;;;25.38;;
76714;SDS011;65644;44.990;20.288;2024-02-04T06:28:23;35.53;;;22.92;;
76714;SDS011;65644;44.990;20.288;2024-02-04T06:30:49;32.92;;;23.60;;
76714;SDS011;65644;44.990;20.288;2024-02-04T06:33:15;31.58;;;22.38;;
76714;SDS011;65644;44.990;20.288;2024-02-04T06:35:42;29.80;;;22.30;;
76714;SDS011;65644;44.990;20.288;2024-02-04T06:38:08;30.80;;;23.25;;
76714;SDS011;65644;44.990;20.288;2024-02-04T06:40:34;32.78;;;24.48;;
76714;SDS011;65644;44.990;20.288;2024-02-04T06:43:00;36.30;;;23.40;;
76714;SDS011;65644;44.990;20.288;2024-02-04T06:45:26;29.38;;;22.48;;
76714;SDS011;65644;44.990;20.288;2024-02-04T06:47:52;30.85;;;21.98;;
76714;SDS011;65644;44.990;20.288;2024-02-04T06:50:18;30.58;;;23.65;;
76714;SDS011;65644;44.990;20.288;2024-02-04T06:52:45;30.65;;;22.85;;
76714;SDS011;65644;44.990;20.288;2024-02-04T06:55:12;35.17;;;23.42;;
76714;SDS011;65644;44.990;20.288;2024-02-04T06:57:38;33.22;;;24.52;;
76714;SDS011;65644;44.990;20.288;2024-02-04T07:00:05;29.92;;;22.60;;
76714;SDS011;65644;44.990;20.288;2024-02-04T07:02:33;31.67;;;22.50;;
76714;SDS011;65644;44.990;20.288;2024-02-04T07:04:59;30.23;;;23.10;;
76714;SDS011;65644;44.990;20.288;2024-02-04T07:07:26;28.65;;;21.55;;
76714;SDS011;65644;44.990;20.288;2024-02-04T07:09:52;32.60;;;23.02;;
76714;SDS011;65644;44.990;20.288;2024-02-04T07:12:18;36.65;;;26.13;;
76714;SDS011;65644;44.990;20.288;2024-02-04T07:14:44;37.72;;;26.52;;
76714;SDS011;65644;44.990;20.288;2024-02-04T07:17:10;35.85;;;26.52;;
76714;SDS011;65644;44.990;20.288;2024-02-04T07:19:37;38.00;;;25.38;;
76714;SDS011;65644;44.990;20.288;2024-02-04T07:22:03;36.17;;;25.35;;
76714;SDS011;65644;44.990;20.288;2024-02-04T07:24:29;37.88;;;25.17;;
76714;SDS011;65644;44.990;20.288;2024-02-04T07:26:55;37.05;;;27.13;;
76714;SDS011;65644;44.990;20.288;2024-02-04T07:29:21;53.63;;;33.50;;
76714;SDS011;65644;44.990;20.288;2024-02-04T07:31:47;125.35;;;65.55;;
76714;SDS011;65644;44.990;20.288;2024-02-04T07:34:13;106.57;;;60.35;;
76714;SDS011;65644;44.990;20.288;2024-02-04T07:36:39;101.28;;;58.22;;
76714;SDS011;65644;44.990;20.288;2024-02-04T07:39:06;81.22;;;46.05;;
76714;SDS011;65644;44.990;20.288;2024-02-04T07:41:32;66.20;;;40.70;;
76714;SDS011;65644;44.990;20.288;2024-02-04T07:43:58;48.40;;;31.80;;
76714;SDS011;65644;44.990;20.288;2024-02-04T07:46:24;39.70;;;28.92;;
76714;SDS011;65644;44.990;20.288;2024-02-04T07:48:50;41.28;;;31.42;;
76714;SDS011;65644;44.990;20.288;2024-02-04T07:51:16;50.95;;;37.38;;
76714;SDS011;65644;44.990;20.288;2024-02-04T07:53:42;45.85;;;32.22;;
76714;SDS011;65644;44.990;20.288;2024-02-04T07:56:09;52.70;;;37.78;;
76714;SDS011;65644;44.990;20.288;2024-02-04T07:58:36;48.85;;;33.95;;
76714;SDS011;65644;44.990;20.288;2024-02-04T08:01:02;55.22;;;36.83;;
76714;SDS011;65644;44.990;20.288;2024-02-04T08:03:28;54.17;;;37.70;;
76714;SDS011;65644;44.990;20.288;2024-02-04T08:05:54;40.05;;;27.80;;
76714;SDS011;65644;44.990;20.288;2024-02-04T08:08:20;29.50;;;22.58;;
76714;SDS011;65644;44.990;20.288;2024-02-04T08:10:46;34.33;;;23.85;;
76714;SDS011;65644;44.990;20.288;2024-02-04T08:13:12;32.85;;;24.52;;
76714;SDS011;65644;44.990;20.288;2024-02-04T08:15:39;37.70;;;26.05;;
76714;SDS011;65644;44.990;20.288;2024-02-04T08:18:05;34.90;;;25.98;;
76714;SDS011;65644;44.990;20.288;2024-02-04T08:20:31;40.22;;;28.60;;
76714;SDS011;65644;44.990;20.288;2024-02-04T08:22:57;37.60;;;26.52;;
76714;SDS011;65644;44.990;20.288;2024-02-04T08:25:23;34.50;;;23.75;;
76714;SDS011;65644;44.990;20.288;2024-02-04T08:27:49;34.00;;;23.80;;
76714;SDS011;65644;44.990;20.288;2024-02-04T08:30:16;32.45;;;24.38;;
76714;SDS011;65644;44.990;20.288;2024-02-04T08:32:44;31.92;;;22.88;;
76714;SDS011;65644;44.990;20.288;2024-02-04T08:35:10;34.25;;;23.70;;
76714;SDS011;65644;44.990;20.288;2024-02-04T08:37:36;31.15;;;22.60;;
76714;SDS011;65644;44.990;20.288;2024-02-04T08:40:03;32.55;;;24.25;;
76714;SDS011;65644;44.990;20.288;2024-02-04T08:42:29;30.35;;;23.50;;
76714;SDS011;65644;44.990;20.288;2024-02-04T08:44:55;33.83;;;24.02;;
76714;SDS011;65644;44.990;20.288;2024-02-04T08:47:21;33.22;;;23.42;;
76714;SDS011;65644;44.990;20.288;2024-02-04T08:49:48;31.90;;;23.77;;
76714;SDS011;65644;44.990;20.288;2024-02-04T08:52:14;32.78;;;22.55;;
76714;SDS011;65644;44.990;20.288;2024-02-04T08:54:40;37.70;;;27.55;;
76714;SDS011;65644;44.990;20.288;2024-02-04T08:57:06;78.75;;;46.60;;
76714;SDS011;65644;44.990;20.288;2024-02-04T08:59:32;50.00;;;32.60;;
76714;SDS011;65644;44.990;20.288;2024-02-04T09:01:58;33.08;;;25.35;;
76714;SDS011;65644;44.990;20.288;2024-02-04T09:04:24;33.47;;;24.08;;
76714;SDS011;65644;44.990;20.288;2024-02-04T09:06:50;30.40;;;21.83;;
76714;SDS011;65644;44.990;20.288;2024-02-04T09:09:16;27.75;;;22.15;;
76714;SDS011;65644;44.990;20.288;2024-02-04T09:11:42;29.88;;;22.80;;
76714;SDS011;65644;44.990;20.288;2024-02-04T09:14:08;34.65;;;22.88;;
76714;SDS011;65644;44.990;20.288;2024-02-04T09:16:37;29.50;;;23.65;;
76714;SDS011;65644;44.990;20.288;2024-02-04T09:19:03;30.50;;;22.10;;
76714;SDS011;65644;44.990;20.288;2024-02-04T09:21:30;30.17;;;19.90;;
76714;SDS011;65644;44.990;20.288;2024-02-04T09:23:56;27.65;;;20.65;;
76714;SDS011;65644;44.990;20.288;2024-02-04T09:26:22;27.40;;;20.42;;
76714;SDS011;65644;44.990;20.288;2024-02-04T09:28:48;23.48;;;18.13;;
76714;SDS011;65644;44.990;20.288;2024-02-04T09:31:14;28.40;;;18.38;;
76714;SDS011;65644;44.990;20.288;2024-02-04T09:33:41;24.50;;;18.35;;
76714;SDS011;65644;44.990;20.288;2024-02-04T09:36:08;29.15;;;19.08;;
76714;SDS011;65644;44.990;20.288;2024-02-04T09:38:34;24.67;;;16.85;;
76714;SDS011;65644;44.990;20.288;2024-02-04T09:41:00;23.40;;;18.17;;
76714;SDS011;65644;44.990;20.288;2024-02-04T09:43:29;23.38;;;16.63;;
76714;SDS011;65644;44.990;20.288;2024-02-04T09:45:55;22.83;;;15.55;;
76714;SDS011;65644;44.990;20.288;2024-02-04T09:48:21;20.63;;;14.02;;
76714;SDS011;65644;44.990;20.288;2024-02-04T09:50:49;23.98;;;15.57;;
76714;SDS011;65644;44.990;20.288;2024-02-04T09:53:16;22.50;;;15.65;;
76714;SDS011;65644;44.990;20.288;2024-02-04T09:55:48;21.33;;;16.17;;
76714;SDS011;65644;44.990;20.288;2024-02-04T09:58:15;27.55;;;19.10;;
76714;SDS011;65644;44.990;20.288;2024-02-04T10:00:41;25.10;;;18.08;;
76714;SDS011;65644;44.990;20.288;2024-02-04T10:03:10;21.60;;;16.08;;
76714;SDS011;65644;44.990;20.288;2024-02-04T10:05:36;20.95;;;16.42;;
76714;SDS011;65644;44.990;20.288;2024-02-04T10:08:02;21.95;;;15.80;;
76714;SDS011;65644;44.990;20.288;2024-02-04T10:10:28;21.38;;;14.30;;
76714;SDS011;65644;44.990;20.288;2024-02-04T10:12:55;22.40;;;15.55;;
76714;SDS011;65644;44.990;20.288;2024-02-04T10:15:21;18.15;;;12.27;;
76714;SDS011;65644;44.990;20.288;2024-02-04T10:17:47;13.68;;;9.85;;
76714;SDS011;65644;44.990;20.288;2024-02-04T10:20:13;14.65;;;9.43;;
76714;SDS011;65644;44.990;20.288;2024-02-04T10:22:40;8.20;;;5.45;;
76714;SDS011;65644;44.990;20.288;2024-02-04T10:25:09;4.05;;;2.88;;
76714;SDS011;65644;44.990;20.288;2024-02-04T10:27:38;1.55;;;1.35;;
76714;SDS011;65644;44.990;20.288;2024-02-04T10:30:05;1.35;;;1.10;;
76714;SDS011;65644;44.990;20.288;2024-02-04T10:32:31;1.77;;;1.20;;
76714;SDS011;65644;44.990;20.288;2024-02-04T10:34:57;2.08;;;0.77;;
76714;SDS011;65644;44.990;20.288;2024-02-04T10:37:25;0.98;;;0.57;;
76714;SDS011;65644;44.990;20.288;2024-02-04T10:39:51;0.95;;;0.43;;
76714;SDS011;65644;44.990;20.288;2024-02-04T10:42:18;0.70;;;0.70;;
76714;SDS011;65644;44.990;20.288;2024-02-04T10:44:45;1.65;;;0.47;;
76714;SDS011;65644;44.990;20.288;2024-02-04T10:47:13;0.88;;;0.70;;
76714;SDS011;65644;44.990;20.288;2024-02-04T10:49:45;1.83;;;0.70;;
76714;SDS011;65644;44.990;20.288;2024-02-04T10:52:15;1.60;;;0.80;;
76714;SDS011;65644;44.990;20.288;2024-02-04T10:54:43;0.80;;;0.80;;
76714;SDS011;65644;44.990;20.288;2024-02-04T10:57:11;1.40;;;1.15;;
76714;SDS011;65644;44.990;20.288;2024-02-04T10:59:38;2.20;;;1.10;;
76714;SDS011;65644;44.990;20.288;2024-02-04T11:02:05;3.75;;;0.90;;
76714;SDS011;65644;44.990;20.288;2024-02-04T11:04:32;1.25;;;1.15;;
76714;SDS011;65644;44.990;20.288;2024-02-04T11:06:59;3.17;;;1.08;;
76714;SDS011;65644;44.990;20.288;2024-02-04T11:09:26;1.80;;;1.15;;
76714;SDS011;65644;44.990;20.288;2024-02-04T11:11:53;1.95;;;1.02;;
76714;SDS011;65644;44.990;20.288;2024-02-04T11:14:21;1.50;;;1.10;;
76714;SDS011;65644;44.990;20.288;2024-02-04T11:27:06;0.90;;;0.90;;
76714;SDS011;65644;44.990;20.288;2024-02-04T11:29:33;1.77;;;1.20;;
76714;SDS011;65644;44.990;20.288;2024-02-04T11:32:01;1.67;;;1.30;;
76714;SDS011;65644;44.990;20.288;2024-02-04T11:34:27;1.10;;;1.00;;
76714;SDS011;65644;44.990;20.288;2024-02-04T11:36:53;2.15;;;0.80;;
76714;SDS011;65644;44.990;20.288;2024-02-04T11:39:19;1.10;;;0.88;;
76714;SDS011;65644;44.990;20.288;2024-02-04T11:41:47;2.55;;;0.80;;
76714;SDS011;65644;44.990;20.288;2024-02-04T11:44:23;1.33;;;0.90;;
76714;SDS011;65644;44.990;20.288;2024-02-04T11:46:50;2.63;;;1.10;;
76714;SDS011;65644;44.990;20.288;2024-02-04T11:49:19;2.35;;;1.00;;
76714;SDS011;65644;44.990;20.288;2024-02-04T11:51:47;4.13;;;1.80;;
76714;SDS011;65644;44.990;20.288;2024-02-04T11:54:16;0.70;;;0.70;;
76714;SDS011;65644;44.990;20.288;2024-02-04T11:56:47;0.52;;;0.30;;
76714;SDS011;65644;44.990;20.288;2024-02-04T11:59:18;1.10;;;0.65;;
76714;SDS011;65644;44.990;20.288;2024-02-04T12:01:44;0.52;;;0.20;;
76714;SDS011;65644;44.990;20.288;2024-02-04T12:04:14;1.05;;;0.20;;
76714;SDS011;65644;44.990;20.288;2024-02-04T12:06:41;1.08;;;0.30;;
76714;SDS011;65644;44.990;20.288;2024-02-04T12:09:07;1.40;;;0.47;;
76714;SDS011;65644;44.990;20.288;2024-02-04T12:11:34;3.13;;;0.68;;
76714;SDS011;65644;44.990;20.288;2024-02-04T12:14:01;0.65;;;0.63;;
76714;SDS011;65644;44.990;20.288;2024-02-04T12:16:27;1.40;;;0.60;;
76714;SDS011;65644;44.990;20.288;2024-02-04T12:18:53;3.53;;;2.22;;
76714;SDS011;65644;44.990;20.288;2024-02-04T12:21:19;5.00;;;1.00;;
76714;SDS011;65644;44.990;20.288;2024-02-04T12:23:46;1.38;;;0.98;;
76714;SDS011;65644;44.990;20.288;2024-02-04T12:26:12;2.03;;;1.10;;
76714;SDS011;65644;44.990;20.288;2024-02-04T12:28:39;1.83;;;0.75;;
76714;SDS011;65644;44.990;20.288;2024-02-04T12:31:05;1.20;;;0.60;;
76714;SDS011;65644;44.990;20.288;2024-02-04T12:33:31;1.10;;;0.40;;
76714;SDS011;65644;44.990;20.288;2024-02-04T12:35:57;0.40;;;0.40;;
76714;SDS011;65644;44.990;20.288;2024-02-04T12:38:25;2.22;;;0.20;;
76714;SDS011;65644;44.990;20.288;2024-02-04T12:40:51;0.93;;;0.20;;
76714;SDS011;65644;44.990;20.288;2024-02-04T12:43:17;2.83;;;0.80;;
76714;SDS011;65644;44.990;20.288;2024-02-04T12:45:43;0.73;;;0.40;;
76714;SDS011;65644;44.990;20.288;2024-02-04T12:48:09;2.50;;;0.28;;
76714;SDS011;65644;44.990;20.288;2024-02-04T12:50:40;3.47;;;0.93;;
76714;SDS011;65644;44.990;20.288;2024-02-04T12:55:32;0.47;;;0.40;;
76714;SDS011;65644;44.990;20.288;2024-02-04T12:58:05;0.90;;;0.32;;
76714;SDS011;65644;44.990;20.288;2024-02-04T13:00:33;1.57;;;0.40;;
76714;SDS011;65644;44.990;20.288;2024-02-04T13:02:59;1.95;;;0.40;;
76714;SDS011;65644;44.990;20.288;2024-02-04T13:05:25;1.15;;;0.30;;
76714;SDS011;65644;44.990;20.288;2024-02-04T13:07:55;1.67;;;0.47;;
76714;SDS011;65644;44.990;20.288;2024-02-04T13:10:24;2.05;;;0.20;;
76714;SDS011;65644;44.990;20.288;2024-02-04T13:13:00;0.40;;;0.40;;
76714;SDS011;65644;44.990;20.288;2024-02-04T13:15:27;0.63;;;0.45;;
76714;SDS011;65644;44.990;20.288;2024-02-04T13:17:54;2.85;;;1.17;;
76714;SDS011;65644;44.990;20.288;2024-02-04T13:20:20;4.05;;;1.27;;
76714;SDS011;65644;44.990;20.288;2024-02-04T13:22:46;1.35;;;0.30;;
76714;SDS011;65644;44.990;20.288;2024-02-04T13:25:12;0.88;;;0.75;;
76714;SDS011;65644;44.990;20.288;2024-02-04T13:27:39;0.98;;;0.82;;
76714;SDS011;65644;44.990;20.288;2024-02-04T13:30:06;1.35;;;0.68;;
76714;SDS011;65644;44.990;20.288;2024-02-04T13:32:37;0.63;;;0.50;;
76714;SDS011;65644;44.990;20.288;2024-02-04T13:35:04;1.92;;;1.00;;
76714;SDS011;65644;44.990;20.288;2024-02-04T13:37:31;1.52;;;0.50;;
76714;SDS011;65644;44.990;20.288;2024-02-04T13:39:57;0.90;;;0.70;;
76714;SDS011;65644;44.990;20.288;2024-02-04T13:42:23;1.33;;;0.95;;
76714;SDS011;65644;44.990;20.288;2024-02-04T13:44:49;2.35;;;1.02;;
76714;SDS011;65644;44.990;20.288;2024-02-04T13:47:15;2.67;;;0.82;;
76714;SDS011;65644;44.990;20.288;2024-02-04T13:49:42;2.05;;;0.90;;
76714;SDS011;65644;44.990;20.288;2024-02-04T13:52:08;1.65;;;0.90;;
76714;SDS011;65644;44.990;20.288;2024-02-04T13:54:34;2.33;;;1.80;;
76714;SDS011;65644;44.990;20.288;2024-02-04T13:57:00;5.85;;;2.20;;
76714;SDS011;65644;44.990;20.288;2024-02-04T13:59:26;2.97;;;1.02;;
76714;SDS011;65644;44.990;20.288;2024-02-04T14:01:52;2.95;;;1.60;;
76714;SDS011;65644;44.990;20.288;2024-02-04T14:04:18;1.70;;;1.10;;
76714;SDS011;65644;44.990;20.288;2024-02-04T14:06:44;2.42;;;1.10;;
76714;SDS011;65644;44.990;20.288;2024-02-04T14:09:11;2.42;;;1.23;;
76714;SDS011;65644;44.990;20.288;2024-02-04T14:11:40;1.00;;;0.82;;
76714;SDS011;65644;44.990;20.288;2024-02-04T14:14:06;3.35;;;1.25;;
76714;SDS011;65644;44.990;20.288;2024-02-04T14:16:32;1.40;;;0.98;;
76714;SDS011;65644;44.990;20.288;2024-02-04T14:18:58;2.17;;;1.15;;
76714;SDS011;65644;44.990;20.288;2024-02-04T14:21:24;1.70;;;1.50;;
76714;SDS011;65644;44.990;20.288;2024-02-04T14:23:50;3.10;;;1.25;;
76714;SDS011;65644;44.990;20.288;2024-02-04T14:26:17;2.83;;;1.35;;
76714;SDS011;65644;44.990;20.288;2024-02-04T14:28:43;1.92;;;1.55;;
76714;SDS011;65644;44.990;20.288;2024-02-04T14:31:09;1.58;;;1.30;;
76714;SDS011;65644;44.990;20.288;2024-02-04T14:33:35;2.28;;;1.02;;